Time;durP1;ratioP1;P1;durP2;ratioP2;P2;SDS_P1;SDS_P2;PMS_P1;PMS_P2;Temp;Humidity;BMP_temperature;BMP_pressure;BME280_temperature;BME280_humidity;BME280_pressure;Samples;Min_cycle;Max_cycle;Signal;HPM_P1;HPM_P2
2023/05/08 00:01:57;;;;;;;4.97;4.57;;;13.60;70.90;;;16.00;50.67;102268.06;5035173;28;20675;-65
2023/05/08 00:04:24;;;;;;;5.33;4.93;;;13.60;70.70;;;16.03;50.75;102277.53;5034879;28;20211;-67
2023/05/08 00:06:51;;;;;;;5.20;4.80;;;13.60;70.70;;;16.03;50.61;102273.03;5034371;28;20682;-65
2023/05/08 00:09:18;;;;;;;6.40;5.80;;;13.60;70.70;;;16.01;50.53;102274.22;5034812;28;20195;-64
2023/05/08 00:11:47;;;;;;;5.37;4.87;;;13.60;70.70;;;16.02;50.26;102271.38;5035195;28;20194;-65
2023/05/08 00:14:14;;;;;;;6.30;5.73;;;13.60;70.60;;;15.96;50.37;102261.44;5034210;28;20296;-65
2023/05/08 00:16:41;;;;;;;5.80;5.30;;;13.50;70.60;;;15.94;50.28;102274.06;5034831;28;20199;-65
2023/05/08 00:19:08;;;;;;;6.20;5.60;;;13.50;70.40;;;15.91;50.67;102266.44;5033737;28;20534;-66
2023/05/08 00:21:35;;;;;;;5.80;5.30;;;13.50;71.30;;;15.93;50.36;102272.41;5035112;28;20226;-65
2023/05/08 00:24:02;;;;;;;6.47;5.47;;;13.50;70.40;;;15.90;50.20;102270.09;5034844;28;20211;-64
2023/05/08 00:26:28;;;;;;;6.33;5.73;;;13.50;70.40;;;15.88;50.19;102269.44;5034649;28;20199;-66
2023/05/08 00:28:57;;;;;;;5.63;5.23;;;13.50;70.40;;;15.82;50.13;102275.44;5034654;28;20810;-65
2023/05/08 00:31:24;;;;;;;6.43;5.77;;;13.50;70.40;;;15.78;50.41;102276.78;5035140;28;20531;-66
2023/05/08 00:33:51;;;;;;;5.23;4.80;;;13.40;70.30;;;15.77;50.36;102275.13;5035100;28;20580;-64
2023/05/08 00:36:18;;;;;;;5.97;5.50;;;13.40;70.30;;;15.79;50.02;102274.94;5034921;28;20590;-64
2023/05/08 00:38:44;;;;;;;6.80;5.40;;;13.40;70.30;;;15.81;50.01;102284.41;5034668;28;20279;-64
2023/05/08 00:41:11;;;;;;;5.60;5.20;;;13.40;70.30;;;15.83;50.32;102279.75;5034243;28;20210;-64
2023/05/08 00:43:38;;;;;;;6.00;5.50;;;13.30;70.40;;;15.86;50.30;102275.91;5034054;28;20666;-64
2023/05/08 00:46:08;;;;;;;6.90;6.17;;;13.30;70.40;;;15.88;49.94;102280.06;5033014;28;20190;-64
2023/05/08 00:48:37;;;;;;;5.23;4.83;;;13.40;70.40;;;15.87;50.02;102282.91;5034334;28;20226;-65
2023/05/08 00:51:08;;;;;;;5.67;5.23;;;13.40;70.30;;;15.86;49.84;102275.91;5033356;28;20183;-64
2023/05/08 00:53:39;;;;;;;6.83;5.83;;;13.40;70.30;;;15.87;50.00;102273.09;5034213;28;20199;-65
2023/05/08 00:56:10;;;;;;;5.33;4.93;;;13.40;70.30;;;15.84;49.99;102276.09;5033980;28;20183;-64
2023/05/08 00:58:38;;;;;;;6.00;5.40;;;13.40;70.20;;;15.82;50.07;102275.44;5034647;28;20625;-64
2023/05/08 01:01:07;;;;;;;5.87;5.27;;;13.40;70.10;;;15.86;50.09;102266.13;5033520;28;20276;-66
2023/05/08 01:03:36;;;;;;;5.30;4.90;;;13.40;70.20;;;15.85;49.82;102274.28;5033522;28;20194;-64
2023/05/08 01:06:05;;;;;;;6.43;5.20;;;13.40;69.90;;;15.85;49.85;102263.66;5034271;28;20199;-64
2023/05/08 01:08:32;;;;;;;5.67;5.17;;;13.40;69.90;;;15.87;49.85;102267.78;5033902;28;20221;-66
2023/05/08 01:11:12;;;;;;;5.60;5.20;;;13.40;70.10;;;15.89;49.87;102262.31;5034047;28;20678;-65
2023/05/08 01:13:54;;;;;;;5.30;4.90;;;13.40;70.10;;;15.94;49.80;102274.06;5033668;28;20186;-64
2023/05/08 01:16:37;;;;;;;5.60;5.17;;;13.40;70.20;;;15.97;49.56;102270.25;5033585;28;20252;-64
2023/05/08 01:19:39;;;;;;;5.40;5.00;;;13.40;70.00;;;15.91;49.27;102263.78;5014389;28;20195;-64
2023/05/08 01:22:22;;;;;;;5.90;5.40;;;13.40;69.50;;;15.84;49.64;102270.78;5012969;28;20199;-64
2023/05/08 01:25:45;;;;;;;6.40;5.90;;;13.40;69.40;;;15.77;49.58;102267.16;5013897;28;20211;-64
2023/05/08 01:29:00;;;;;;;5.47;5.03;;;13.40;69.40;;;15.65;49.95;102267.69;5015562;28;20175;-64
2023/05/08 01:31:51;;;;;;;6.00;5.50;;;13.30;69.30;;;15.62;49.85;102260.88;5033229;28;20217;-65
2023/05/08 01:34:25;;;;;;;6.13;5.63;;;13.30;69.50;;;15.58;49.90;102263.06;5032419;28;20214;-64
2023/05/08 01:36:59;;;;;;;5.30;4.90;;;13.30;69.70;;;15.63;49.83;102265.22;5033582;28;20196;-64
2023/05/08 01:39:38;;;;;;;6.23;5.63;;;13.30;69.70;;;15.61;49.84;102266.38;5033673;28;20179;-64
2023/05/08 01:42:13;;;;;;;6.27;5.67;;;13.20;69.60;;;15.64;49.71;102256.25;5033934;28;20202;-64
2023/05/08 01:44:50;;;;;;;6.57;6.07;;;13.20;69.50;;;15.56;49.84;102249.16;5033023;28;20206;-64
2023/05/08 01:47:22;;;;;;;5.67;5.17;;;13.20;69.60;;;15.58;49.96;102256.91;5033752;28;20179;-64
2023/05/08 01:50:15;;;;;;;5.80;5.30;;;13.10;69.60;;;15.56;50.11;102253.63;5034136;28;20183;-64
2023/05/08 01:52:47;;;;;;;6.53;6.03;;;13.10;69.70;;;15.58;49.68;102252.44;5034712;28;20233;-64
2023/05/08 01:55:23;;;;;;;6.80;5.83;;;13.10;69.50;;;15.56;49.66;102258.91;5034542;28;20206;-64
2023/05/08 01:57:56;;;;;;;6.47;5.97;;;13.20;69.60;;;15.49;49.64;102268.56;5037231;28;20193;-64
2023/05/08 02:00:27;;;;;;;5.63;5.23;;;13.10;69.40;;;15.39;49.98;102267.88;5037941;28;20663;-64
2023/05/08 02:02:56;;;;;;;6.10;5.60;;;13.10;69.40;;;15.36;50.31;102273.50;5036879;28;20581;-64
2023/05/08 02:05:27;;;;;;;5.97;5.47;;;13.00;69.50;;;15.35;49.91;102274.53;5037411;28;20206;-64
2023/05/08 02:07:55;;;;;;;5.63;5.23;;;12.90;69.50;;;15.36;50.06;102270.84;5037017;28;20254;-64
2023/05/08 02:10:24;;;;;;;6.13;5.70;;;13.00;69.80;;;15.29;50.30;102267.22;5037407;28;20661;-65
2023/05/08 02:12:54;;;;;;;7.23;6.43;;;12.90;69.70;;;15.23;50.32;102278.50;5036697;28;20551;-64
2023/05/08 02:15:26;;;;;;;6.37;5.87;;;12.90;69.80;;;15.24;50.53;102269.53;5049078;28;20261;-64
2023/05/08 02:17:54;;;;;;;6.57;5.97;;;12.80;70.00;;;15.22;50.11;102266.22;5035513;28;20593;-64
2023/05/08 02:20:22;;;;;;;6.87;6.27;;;12.80;70.00;;;15.22;50.29;102269.72;5037409;28;20546;-64
2023/05/08 02:22:50;;;;;;;6.63;6.03;;;12.80;70.00;;;15.13;50.38;102270.72;5035286;28;20214;-64
2023/05/08 02:25:19;;;;;;;6.13;5.63;;;12.80;70.00;;;15.15;50.36;102259.94;5036945;28;20210;-64
2023/05/08 02:27:49;;;;;;;6.60;6.03;;;12.70;70.00;;;15.17;50.12;102264.06;5036782;28;20512;-65
2023/05/08 02:30:18;;;;;;;6.77;6.23;;;12.80;70.20;;;15.18;50.15;102264.91;5037008;28;20194;-63
2023/05/08 02:32:47;;;;;;;6.90;6.23;;;12.70;70.00;;;15.15;50.20;102273.19;5036241;28;20500;-64
2023/05/08 02:35:18;;;;;;;6.70;6.10;;;12.70;69.80;;;15.11;50.02;102279.84;5036531;28;20218;-64
2023/05/08 02:37:51;;;;;;;6.17;5.67;;;12.70;69.80;;;15.03;50.17;102271.88;5036678;28;20179;-63
2023/05/08 02:40:21;;;;;;;6.73;6.13;;;12.70;69.80;;;14.89;50.31;102278.66;5036645;28;20703;-65
2023/05/08 02:42:49;;;;;;;6.63;6.13;;;12.60;69.70;;;14.85;50.52;102275.53;5016711;28;20203;-65
2023/05/08 02:45:16;;;;;;;6.70;6.20;;;12.60;69.80;;;14.85;50.52;102288.78;5017002;28;20222;-65
2023/05/08 02:47:54;;;;;;;6.90;6.27;;;12.50;69.90;;;14.81;50.59;102274.19;5027875;28;20206;-65
2023/05/08 02:50:31;;;;;;;6.93;6.33;;;12.50;70.10;;;14.84;50.74;102276.50;5036634;28;20214;-64
2023/05/08 02:53:05;;;;;;;6.97;6.27;;;12.50;70.30;;;14.84;50.88;102267.72;5036209;28;20538;-65
2023/05/08 02:55:41;;;;;;;7.10;6.50;;;12.50;70.30;;;14.86;50.43;102269.22;5036161;28;20221;-64
2023/05/08 02:58:17;;;;;;;7.13;6.43;;;12.50;70.50;;;14.85;50.74;102264.94;5036104;28;20197;-63
2023/05/08 03:00:57;;;;;;;7.43;6.73;;;12.50;70.30;;;14.87;50.44;102259.44;5036315;28;20656;-65
2023/05/08 03:03:31;;;;;;;6.07;5.60;;;12.50;70.50;;;14.93;50.30;102262.25;5035480;28;20281;-64
2023/05/08 03:06:02;;;;;;;6.97;6.37;;;12.40;70.40;;;14.98;50.61;102264.41;5035789;28;20208;-66
2023/05/08 03:08:34;;;;;;;7.43;6.83;;;12.50;70.70;;;15.01;50.02;102265.91;5035005;28;20205;-65
2023/05/08 03:11:08;;;;;;;6.90;6.30;;;12.50;70.50;;;15.00;50.00;102261.63;5017899;28;20202;-65
2023/05/08 03:13:41;;;;;;;7.10;6.50;;;12.50;70.30;;;14.99;50.25;102258.13;5035139;28;20202;-65
2023/05/08 03:16:16;;;;;;;8.50;6.80;;;12.50;70.20;;;14.95;50.06;102253.31;5034928;28;20217;-65
2023/05/08 03:18:51;;;;;;;6.93;6.33;;;12.50;70.00;;;14.87;49.91;102252.34;5035349;28;20277;-64
2023/05/08 03:21:21;;;;;;;7.07;6.40;;;12.50;69.90;;;14.89;50.20;102246.84;5035318;28;20578;-65
2023/05/08 03:23:54;;;;;;;7.07;6.53;;;12.40;70.00;;;14.85;50.00;102240.22;5034808;28;20206;-64
2023/05/08 03:26:21;;;;;;;6.47;5.97;;;12.40;70.00;;;14.87;50.29;102235.59;5035542;28;20198;-64
2023/05/08 03:28:50;;;;;;;7.63;6.93;;;12.40;70.10;;;14.87;50.08;102240.88;5035238;28;20190;-64
2023/05/08 03:31:20;;;;;;;6.70;6.20;;;12.40;70.10;;;14.82;49.92;102232.59;5015797;28;20684;-63
2023/05/08 03:33:52;;;;;;;7.23;6.40;;;12.30;70.00;;;14.82;50.32;102235.25;5014860;28;20192;-64
2023/05/08 03:36:21;;;;;;;6.67;6.17;;;12.30;70.00;;;14.82;50.28;102233.44;5021058;28;20683;-65
2023/05/08 03:38:49;;;;;;;7.23;6.73;;;12.30;70.10;;;14.80;50.22;102240.72;5035453;28;20635;-64
2023/05/08 03:41:16;;;;;;;7.20;6.60;;;12.30;70.20;;;14.80;50.33;102232.78;5035372;28;20198;-65
2023/05/08 03:43:44;;;;;;;7.50;6.90;;;12.30;70.20;;;14.79;50.29;102241.72;5034649;28;20197;-63
2023/05/08 03:46:12;;;;;;;7.80;7.10;;;12.30;70.30;;;14.76;50.07;102238.56;5035211;28;20190;-65
2023/05/08 03:48:40;;;;;;;7.23;6.63;;;12.30;70.20;;;14.73;50.27;102242.38;5034777;28;20248;-65
2023/05/08 03:51:07;;;;;;;7.97;7.37;;;12.20;70.20;;;14.74;50.28;102237.88;5034789;28;20290;-65
2023/05/08 03:53:34;;;;;;;7.20;6.50;;;12.20;70.40;;;14.73;50.32;102231.78;5034349;28;20191;-65
2023/05/08 03:56:03;;;;;;;8.13;7.43;;;12.20;70.30;;;14.72;50.40;102237.22;5034559;28;20194;-65
2023/05/08 03:58:37;;;;;;;8.77;7.90;;;12.20;70.40;;;14.68;50.14;102244.69;5034486;28;20609;-65
2023/05/08 04:01:12;;;;;;;7.20;6.60;;;12.20;70.30;;;14.67;50.49;102226.28;5034785;28;20197;-65
2023/05/08 04:03:55;;;;;;;7.60;6.97;;;12.20;70.30;;;14.61;50.57;102219.84;5034024;28;20631;-64
2023/05/08 04:06:29;;;;;;;8.13;7.37;;;12.20;70.20;;;14.56;50.56;102216.84;5034419;28;20197;-65
2023/05/08 04:09:23;;;;;;;7.40;6.80;;;12.20;70.30;;;14.55;50.48;102224.94;5034438;28;20202;-64
2023/05/08 04:12:02;;;;;;;7.83;7.00;;;12.10;70.30;;;14.55;50.62;102223.13;5034111;28;20593;-65
2023/05/08 04:14:36;;;;;;;7.57;6.77;;;12.10;70.40;;;14.55;50.43;102231.06;5033571;28;20724;-64
2023/05/08 04:17:10;;;;;;;8.43;7.63;;;12.10;70.30;;;14.48;50.68;102230.06;5034475;28;20261;-64
2023/05/08 04:19:44;;;;;;;8.27;7.57;;;12.10;70.40;;;14.47;50.36;102230.25;5033351;28;20195;-65
2023/05/08 04:22:13;;;;;;;8.33;7.63;;;12.10;70.40;;;14.47;50.74;102236.38;5034719;28;20678;-65
2023/05/08 04:24:45;;;;;;;8.03;7.43;;;12.10;70.70;;;14.48;50.68;102235.38;5034194;28;20214;-64
2023/05/08 04:27:15;;;;;;;8.10;7.40;;;12.00;70.50;;;14.44;50.75;102239.34;5034548;28;20190;-65
2023/05/08 04:29:42;;;;;;;7.80;7.10;;;12.00;70.60;;;14.43;50.77;102245.63;5034918;28;20194;-64
2023/05/08 04:32:10;;;;;;;9.97;7.67;;;12.00;70.60;;;14.48;50.61;102245.13;5033953;28;20205;-64
2023/05/08 04:34:38;;;;;;;8.77;7.93;;;12.00;70.70;;;14.47;50.90;102262.88;5033641;28;20582;-64
2023/05/08 04:37:06;;;;;;;7.43;6.77;;;12.00;71.00;;;14.45;50.65;102246.31;5034521;28;20197;-64
2023/05/08 04:39:33;;;;;;;7.53;6.83;;;12.00;70.80;;;14.47;50.70;102243.50;5034149;28;20620;-66
2023/05/08 04:42:02;;;;;;;9.47;7.53;;;12.00;70.70;;;14.48;50.81;102256.56;5033838;28;20206;-65
2023/05/08 04:44:31;;;;;;;7.17;6.57;;;12.00;71.00;;;14.49;50.53;102258.25;5033759;28;20221;-65
2023/05/08 04:46:58;;;;;;;8.33;7.63;;;12.00;70.80;;;14.48;50.62;102264.53;5033586;28;20197;-64
2023/05/08 04:49:24;;;;;;;8.07;7.37;;;12.00;70.80;;;14.46;50.57;102258.56;5034157;28;20190;-66
2023/05/08 04:51:51;;;;;;;7.87;7.17;;;12.00;70.50;;;14.47;50.59;102254.94;5032531;28;20650;-65
2023/05/08 04:54:18;;;;;;;7.60;7.00;;;12.00;70.60;;;14.44;50.49;102255.25;5033110;28;20211;-65
2023/05/08 04:56:45;;;;;;;9.40;6.73;;;12.00;70.50;;;14.45;50.63;102246.31;5033836;28;20562;-65
2023/05/08 04:59:12;;;;;;;8.03;7.33;;;12.00;70.50;;;14.48;50.65;102251.28;5033195;28;20555;-64
2023/05/08 05:01:45;;;;;;;7.93;7.20;;;12.10;70.70;;;14.48;50.65;102245.97;5033544;28;20298;-64
2023/05/08 05:04:12;;;;;;;7.40;6.70;;;12.00;70.50;;;14.49;50.69;102258.25;5032808;28;20214;-64
2023/05/08 05:06:40;;;;;;;8.63;7.57;;;12.10;70.40;;;14.49;50.60;102258.25;5032906;28;20285;-65
2023/05/08 05:09:07;;;;;;;7.23;6.63;;;12.00;70.20;;;14.51;50.56;102252.78;5033755;28;20536;-65
2023/05/08 05:11:34;;;;;;;6.80;6.27;;;12.10;70.20;;;14.58;50.28;102262.56;5033234;28;20195;-65
2023/05/08 05:14:14;;;;;;;7.63;6.93;;;12.10;70.40;;;14.54;50.38;102263.06;5031111;28;20214;-65
2023/05/08 05:16:43;;;;;;;7.40;6.60;;;12.10;70.00;;;14.56;50.29;102259.25;5029118;28;20221;-66
2023/05/08 05:19:11;;;;;;;7.10;6.50;;;12.10;70.00;;;14.50;50.13;102259.88;5033109;28;20222;-66
2023/05/08 05:21:38;;;;;;;7.80;7.10;;;12.10;69.70;;;14.45;50.37;102264.88;5032227;28;20190;-65
2023/05/08 05:24:05;;;;;;;8.00;7.23;;;12.10;69.70;;;14.45;50.43;102262.22;5032690;28;20268;-66
2023/05/08 05:26:33;;;;;;;7.07;6.40;;;12.10;69.90;;;14.51;50.24;102274.81;5032955;28;20203;-64
2023/05/08 05:29:03;;;;;;;6.50;5.90;;;12.10;69.80;;;14.53;50.35;102264.88;5033013;28;20562;-65
2023/05/08 05:31:29;;;;;;;7.50;6.90;;;12.10;69.70;;;14.62;50.00;102266.53;5031614;28;20523;-63
2023/05/08 05:33:58;;;;;;;7.30;6.70;;;12.20;70.00;;;14.72;50.19;102275.16;5032485;28;20306;-65
2023/05/08 05:36:25;;;;;;;7.20;6.60;;;12.20;69.90;;;14.75;49.96;102282.81;5031121;28;20217;-66
2023/05/08 05:38:52;;;;;;;8.27;7.20;;;12.30;69.60;;;14.87;49.72;102278.84;5032871;28;20191;-66
2023/05/08 05:41:18;;;;;;;7.80;7.00;;;12.30;69.60;;;14.84;49.70;102283.63;5032445;28;20701;-66
2023/05/08 05:43:45;;;;;;;7.53;6.77;;;12.40;69.30;;;14.89;49.63;102282.16;5031358;28;20555;-67
2023/05/08 05:46:12;;;;;;;6.87;6.33;;;12.40;69.30;;;15.02;49.27;102288.78;5033023;28;20198;-67
2023/05/08 05:48:39;;;;;;;8.03;7.33;;;12.50;69.10;;;15.07;49.17;102295.25;5032668;28;20686;-65
2023/05/08 05:51:08;;;;;;;7.47;6.73;;;12.60;68.90;;;15.16;49.26;102290.78;5032494;28;20262;-66
2023/05/08 05:53:35;;;;;;;8.87;6.90;;;12.60;68.90;;;15.25;48.84;102293.25;5032203;28;20570;-64
2023/05/08 05:56:02;;;;;;;7.13;6.53;;;12.70;68.50;;;15.35;48.39;102301.06;5032138;28;20206;-66
2023/05/08 05:58:29;;;;;;;6.83;6.20;;;12.80;68.20;;;15.43;48.68;102306.34;5032582;28;20202;-65
2023/05/08 06:00:59;;;;;;;6.83;6.27;;;12.90;68.40;;;15.57;48.27;102297.72;5024802;28;20635;-66
2023/05/08 06:03:26;;;;;;;10.37;9.37;;;12.90;68.30;;;15.69;48.24;102306.19;5023211;28;20226;-66
2023/05/08 06:05:54;;;;;;;7.43;6.73;;;13.00;68.10;;;15.84;47.74;102305.31;5032139;28;20249;-66
2023/05/08 06:08:23;;;;;;;8.23;6.57;;;13.10;67.90;;;15.99;47.55;102300.13;5031232;28;20232;-65
2023/05/08 06:10:50;;;;;;;6.83;6.13;;;13.20;67.60;;;16.12;47.52;102298.56;5021278;28;20691;-66
2023/05/08 06:13:18;;;;;;;7.63;6.13;;;13.30;67.70;;;16.28;46.81;102303.81;5032234;28;20300;-64
2023/05/08 06:15:45;;;;;;;6.23;5.73;;;13.50;67.10;;;16.40;46.50;102303.44;5016807;28;20323;-64
2023/05/08 06:18:13;;;;;;;7.20;6.23;;;13.60;66.70;;;16.52;46.08;102304.75;5017931;28;20205;-65
2023/05/08 06:20:40;;;;;;;6.90;6.30;;;13.60;66.20;;;16.54;45.86;102298.25;5031983;28;20725;-64
2023/05/08 06:23:06;;;;;;;7.50;6.87;;;13.80;65.90;;;16.53;45.83;102298.41;5028118;28;20210;-66
2023/05/08 06:25:35;;;;;;;6.80;6.20;;;13.80;65.20;;;16.58;45.82;102293.38;5031937;28;20413;-65
2023/05/08 06:28:03;;;;;;;6.80;6.30;;;13.80;65.00;;;16.65;45.79;102291.69;5017622;28;20195;-65
2023/05/08 06:30:30;;;;;;;6.70;6.20;;;13.90;65.30;;;16.64;45.66;102298.81;5012524;28;20233;-64
2023/05/08 06:32:57;;;;;;;7.50;6.80;;;13.90;64.60;;;16.57;45.38;102286.44;5024589;28;20186;-65
2023/05/08 06:35:24;;;;;;;7.10;6.50;;;13.90;64.40;;;16.50;45.51;102283.59;5027863;28;20215;-66
2023/05/08 06:37:51;;;;;;;7.50;6.63;;;13.90;64.40;;;16.48;45.71;102282.13;5026684;28;20211;-67
2023/05/08 06:40:18;;;;;;;6.73;6.13;;;13.90;64.40;;;16.57;45.89;102287.25;5024339;28;20195;-67
2023/05/08 06:43:02;;;;;;;6.67;6.07;;;13.90;64.60;;;16.70;45.57;102284.00;5032015;28;20210;-68
2023/05/08 06:45:30;;;;;;;6.53;5.93;;;14.00;64.70;;;16.87;45.31;102277.59;5036515;28;20211;-68
2023/05/08 06:47:57;;;;;;;6.83;6.33;;;14.10;64.80;;;17.02;44.87;102285.63;5031771;28;20566;-68
2023/05/08 06:50:25;;;;;;;8.77;7.50;;;14.20;64.80;;;17.04;45.12;102284.44;5061299;28;20207;-70
2023/05/08 06:52:52;;;;;;;7.10;6.40;;;14.20;64.10;;;17.03;44.83;102271.28;5030065;28;20199;-68
2023/05/08 06:55:20;;;;;;;6.67;6.17;;;14.30;63.70;;;17.07;44.49;102278.72;5015486;28;20692;-68
2023/05/08 06:57:49;;;;;;;6.77;6.07;;;14.40;63.40;;;17.01;44.97;102275.97;5030084;28;20199;-68
2023/05/08 07:00:17;;;;;;;6.50;6.03;;;14.40;63.40;;;17.12;45.02;102270.22;5024141;28;20194;-69
2023/05/08 07:02:44;;;;;;;6.53;6.03;;;14.50;63.60;;;17.21;44.47;102285.13;5044166;28;20747;-68
2023/05/08 07:05:12;;;;;;;8.83;6.70;;;14.50;63.20;;;17.29;44.51;102271.72;5043506;28;20234;-68
2023/05/08 07:07:41;;;;;;;6.63;6.03;;;14.60;63.20;;;17.47;44.56;102270.38;5028521;28;20308;-69
2023/05/08 07:10:09;;;;;;;7.17;6.50;;;14.70;63.60;;;17.67;43.90;102275.19;5036369;28;20277;-67
2023/05/08 07:12:40;;;;;;;7.43;6.83;;;14.80;63.00;;;17.81;43.67;102267.22;5036360;28;20187;-66
2023/05/08 07:15:10;;;;;;;6.47;5.87;;;14.90;62.80;;;18.01;43.72;102267.47;5048323;28;20262;-67
2023/05/08 07:17:52;;;;;;;6.70;6.10;;;15.10;63.00;;;18.22;42.95;102259.53;5013991;28;20210;-67
2023/05/08 07:20:20;;;;;;;11.07;6.93;;;15.20;62.00;;;18.32;42.53;102259.25;5034812;28;20194;-66
2023/05/08 07:22:47;;;;;;;9.30;7.50;;;15.30;61.50;;;18.40;42.48;102257.28;5034325;28;20301;-66
2023/05/08 07:25:15;;;;;;;9.80;7.70;;;15.40;61.30;;;18.48;42.61;102265.22;5035261;28;20213;-66
2023/05/08 07:27:42;;;;;;;8.67;6.57;;;15.50;61.20;;;18.57;42.15;102256.06;5034922;28;20199;-67
2023/05/08 07:30:11;;;;;;;7.13;6.53;;;15.60;60.60;;;18.57;42.09;102253.41;5034843;28;20198;-65
2023/05/08 07:32:38;;;;;;;8.23;7.27;;;15.70;60.40;;;18.63;42.05;102251.81;5034848;28;20197;-66
2023/05/08 07:35:08;;;;;;;7.73;6.97;;;15.80;60.50;;;18.67;42.00;102247.75;5034586;28;20214;-66
2023/05/08 07:37:37;;;;;;;6.30;5.80;;;15.80;60.30;;;18.65;41.77;102250.63;5034345;28;20278;-67
2023/05/08 07:40:06;;;;;;;7.17;6.43;;;15.90;60.00;;;18.56;42.06;102243.78;5034601;28;20191;-65
2023/05/08 07:42:39;;;;;;;6.73;6.13;;;15.90;59.60;;;18.48;42.10;102248.38;5034938;28;20530;-66
2023/05/08 07:45:08;;;;;;;6.70;6.20;;;15.90;59.60;;;18.49;42.20;102234.88;5034260;28;20244;-66
2023/05/08 07:47:37;;;;;;;6.90;6.40;;;15.90;59.70;;;18.71;41.80;102241.00;5014453;28;20201;-65
2023/05/08 07:50:05;;;;;;;7.40;6.67;;;15.90;59.60;;;19.16;41.18;102231.78;5014588;28;20286;-65
2023/05/08 07:52:32;;;;;;;6.17;5.70;;;16.10;59.60;;;20.09;40.55;102238.28;5014686;28;20203;-65
2023/05/08 07:54:59;;;;;;;7.20;6.47;;;16.50;59.90;;;20.84;37.90;102237.25;5013463;28;20215;-66
2023/05/08 07:57:26;;;;;;;6.47;5.83;;;16.90;57.90;;;21.65;36.69;102237.81;5014659;28;20193;-66
2023/05/08 07:59:53;;;;;;;7.70;5.73;;;17.50;56.70;;;22.14;35.34;102228.16;5034599;28;20574;-67
2023/05/08 08:02:30;;;;;;;5.70;5.30;;;17.90;55.00;;;22.75;34.88;102220.38;5035570;28;20195;-67
2023/05/08 08:05:38;;;;;;;6.17;5.57;;;18.40;54.20;;;23.41;33.08;102227.88;5031825;28;20213;-69
2023/05/08 08:08:06;;;;;;;6.83;6.33;;;19.00;52.40;;;23.99;32.38;102234.44;5028429;28;20591;-68
2023/05/08 08:10:46;;;;;;;5.83;5.33;;;19.50;51.40;;;24.74;32.15;102224.06;5018216;28;20598;-68
2023/05/08 08:13:24;;;;;;;5.80;5.30;;;20.10;51.30;;;25.36;30.66;102228.00;5016030;28;20202;-66
2023/05/08 08:15:53;;;;;;;5.93;5.43;;;20.60;48.80;;;26.00;30.10;102235.88;5030445;28;20271;-69
2023/05/08 08:18:21;;;;;;;6.20;5.70;;;21.20;47.80;;;26.66;29.13;102242.50;5020527;28;20210;-69
2023/05/08 08:20:55;;;;;;;6.20;5.70;;;21.70;46.80;;;27.33;27.49;102232.53;5033226;28;20220;-67
2023/05/08 08:23:22;;;;;;;5.80;5.27;;;22.20;44.70;;;27.13;27.39;102229.50;5010448;28;20720;-68
2023/05/08 08:25:52;;;;;;;6.03;5.43;;;22.40;43.60;;;27.37;27.47;102233.66;5016882;28;20226;-67
2023/05/08 08:28:20;;;;;;;5.20;4.80;;;22.70;43.10;;;27.61;27.62;102223.44;5017898;28;20203;-69
2023/05/08 08:30:59;;;;;;;5.30;4.90;;;23.00;43.10;;;28.16;27.05;102224.97;5017756;28;20602;-69
2023/05/08 08:33:43;;;;;;;6.07;5.40;;;23.30;43.00;;;28.69;25.74;102231.47;5002724;28;20203;-69
2023/05/08 08:36:23;;;;;;;5.43;4.37;;;23.70;41.40;;;28.98;25.28;102235.47;5013080;28;20191;-68
2023/05/08 08:39:08;;;;;;;6.00;4.97;;;24.00;40.40;;;29.12;25.08;102231.22;5023379;28;20275;-69
2023/05/08 08:41:41;;;;;;;6.23;4.87;;;24.10;39.20;;;29.07;24.47;102231.22;5027195;28;20678;-69
2023/05/08 08:44:09;;;;;;;5.03;4.60;;;24.10;37.70;;;28.90;25.18;102233.25;5020327;28;20230;-69
2023/05/08 08:46:46;;;;;;;5.50;4.93;;;24.40;39.10;;;29.32;24.62;102242.25;5016686;28;20733;-68
2023/05/08 08:49:23;;;;;;;5.80;5.30;;;24.50;38.20;;;29.55;23.87;102235.56;5034139;28;20194;-68
2023/05/08 08:52:00;;;;;;;5.83;5.00;;;24.50;37.60;;;29.23;24.82;102229.44;5017390;28;20207;-69
2023/05/08 08:54:33;;;;;;;5.50;5.10;;;24.60;37.70;;;29.12;24.81;102230.41;5032613;28;20225;-68
2023/05/08 08:57:06;;;;;;;6.13;5.63;;;24.60;37.90;;;29.43;24.77;102238.50;5033216;28;20290;-68
2023/05/08 08:59:37;;;;;;;6.47;5.97;;;24.70;38.10;;;29.28;25.20;102235.72;5033653;28;20205;-68
2023/05/08 09:02:10;;;;;;;7.23;6.63;;;24.70;38.20;;;28.90;25.17;102227.00;5033366;28;20199;-68
2023/05/08 09:04:38;;;;;;;6.67;6.07;;;24.60;37.80;;;28.46;26.26;102226.31;5032449;28;20238;-67
2023/05/08 09:07:07;;;;;;;6.70;6.17;;;24.50;38.60;;;28.48;26.25;102224.19;5026435;28;20195;-66
2023/05/08 09:09:39;;;;;;;7.10;6.50;;;24.40;39.10;;;28.46;25.96;102219.00;5013544;28;20199;-69
2023/05/08 09:12:07;;;;;;;7.00;6.50;;;24.30;39.10;;;28.40;26.28;102227.34;5033196;28;20693;-67
2023/05/08 09:14:35;;;;;;;7.00;6.40;;;24.10;39.20;;;28.25;26.46;102216.34;5033050;28;20612;-67
2023/05/08 09:17:02;;;;;;;6.70;6.20;;;24.00;39.50;;;28.20;26.62;102222.53;5033474;28;20209;-65
2023/05/08 09:19:30;;;;;;;7.13;6.63;;;24.10;39.90;;;28.29;26.85;102212.09;5032112;28;20706;-66
2023/05/08 09:21:59;;;;;;;6.70;6.20;;;24.10;40.10;;;28.54;26.88;102217.72;5032743;28;20190;-67
2023/05/08 09:24:56;;;;;;;7.20;6.60;;;24.10;40.50;;;29.05;26.29;102219.78;5031196;28;20246;-66
2023/05/08 09:27:25;;;;;;;6.73;6.23;;;24.30;40.30;;;29.23;25.72;102222.13;5032343;28;20773;-67
2023/05/08 09:30:03;;;;;;;7.87;7.27;;;24.50;40.20;;;29.50;25.94;102222.78;5031819;28;20212;-66
2023/05/08 09:32:34;;;;;;;7.17;6.57;;;24.60;39.80;;;29.51;25.20;102218.19;5032153;28;20229;-68
2023/05/08 09:35:02;;;;;;;7.00;6.40;;;24.60;39.00;;;29.74;24.95;102222.38;5030462;28;20229;-65
2023/05/08 09:37:30;;;;;;;6.90;6.30;;;24.80;39.00;;;29.63;24.97;102220.66;5032301;28;20290;-67
2023/05/08 09:42:50;;;;;;;6.57;6.07;;;24.80;38.80;;;30.25;25.10;102229.59;5088629;28;20585;-67
2023/05/08 09:45:29;;;;;;;7.23;6.70;;;25.20;38.90;;;30.61;23.39;102231.31;5062315;28;20322;-67
2023/05/08 09:47:56;;;;;;;7.00;6.40;;;25.30;37.70;;;30.99;23.96;102229.13;5049696;28;20185;-67
2023/05/08 09:50:24;;;;;;;5.60;5.20;;;25.60;37.60;;;31.21;23.54;102227.69;5048023;28;20635;-67
2023/05/08 09:52:51;;;;;;;6.30;5.90;;;25.80;37.00;;;31.29;23.01;102215.44;5049236;28;20189;-66
2023/05/08 09:55:19;;;;;;;6.33;5.83;;;26.10;36.90;;;30.89;24.08;102223.69;5055887;28;20621;-68
2023/05/08 09:57:56;;;;;;;6.60;6.10;;;26.10;36.60;;;30.75;23.89;102226.13;5068947;28;20280;-67
2023/05/08 10:00:24;;;;;;;5.93;5.53;;;26.00;36.40;;;30.60;23.73;102218.78;5069096;28;20195;-67
2023/05/08 10:02:57;;;;;;;5.97;5.47;;;26.00;36.50;;;30.38;23.86;102218.22;5066519;28;20193;-67
2023/05/08 10:05:31;;;;;;;6.20;5.53;;;26.00;36.30;;;30.39;24.10;102211.69;5057091;28;20311;-67
2023/05/08 10:08:17;;;;;;;6.30;5.87;;;26.00;36.80;;;30.45;24.51;102220.69;5068230;28;20189;-67
2023/05/08 10:10:44;;;;;;;7.47;6.77;;;25.90;36.70;;;29.99;24.68;102209.72;5067043;28;20619;-66
2023/05/08 10:13:13;;;;;;;6.90;6.20;;;25.70;36.60;;;29.37;25.59;102220.56;5068601;28;20209;-67
2023/05/08 10:15:50;;;;;;;7.33;6.73;;;25.50;37.40;;;28.86;25.99;102201.50;5060961;28;20224;-68
2023/05/08 10:18:22;;;;;;;7.10;6.50;;;25.10;38.10;;;28.35;27.39;102203.75;5051215;28;20219;-67
2023/05/08 10:20:57;;;;;;;7.33;6.37;;;24.90;39.10;;;28.77;27.04;102195.72;5052307;28;20221;-67
2023/05/08 10:23:25;;;;;;;8.00;6.17;;;24.90;39.80;;;29.36;26.19;102210.78;5048261;28;20190;-67
2023/05/08 10:26:06;;;;;;;7.23;6.73;;;24.90;39.70;;;29.40;25.74;102202.94;5031177;28;20580;-67
2023/05/08 10:28:43;;;;;;;6.20;5.70;;;24.90;38.80;;;29.37;25.74;102200.75;5048325;28;20648;-67
2023/05/08 10:31:13;;;;;;;7.63;7.00;;;25.00;39.00;;;29.42;26.29;102207.03;5048849;28;20243;-67
2023/05/08 10:33:45;;;;;;;6.80;6.17;;;25.00;39.50;;;29.40;25.71;102200.22;5048186;28;20197;-67